Flight Track Log - Related Links

Times and Time Zones

All times are in EDT time to prevent confusion due to time zone crossing. See the N8775A flight status page for this flight to view local times or setup timezone preferences in your user account.

Time Position Orientation Groundspeed Altitude Reporting Facility
EDT Latitude Longitude Course Direction KTS MPH feet Rate Location/Type
Tue 04:38:32 PM 45.3167 -75.6000 65° Northeast 160 184 900  Level Toronto Center
Tue 04:39:32 PM 45.3333 -75.5500 25° Northeast 180 207 2,600 1,750 Climbing Toronto Center
Tue 04:40:32 PM 45.3833 -75.5167 332° Northwest 230 265 4,400 2,200 Climbing Toronto Center
Tue 04:41:32 PM 45.4500 -75.5667 259° West 260 299 7,000 2,600 Climbing Toronto Center
Tue 04:42:32 PM 45.4333 -75.6833 240° Southwest 270 311 9,600 2,050 Climbing Toronto Center
Tue 04:43:32 PM 45.4000 -75.7667 239° Southwest 290 334 11,100 1,400 Climbing Toronto Center
Tue 04:44:32 PM 45.3500 -75.8833 239° Southwest 330 380 12,400 1,400 Climbing Toronto Center
Tue 04:45:32 PM 45.3000 -76.0000 253° West 350 403 13,900 1,650 Climbing Toronto Center
Tue 04:46:32 PM 45.2667 -76.1500 235° Southwest 350 403 15,700 1,650 Climbing Toronto Center
Tue 04:47:32 PM 45.2167 -76.2500 245° Southwest 350 403 17,200 1,300 Climbing Toronto Center
Tue 04:48:32 PM 45.1667 -76.4000 230° Southwest 350 403 18,300 1,100 Climbing Toronto Center
Tue 04:49:32 PM 45.1167 -76.4833 242° Southwest 350 403 19,400 1,000 Climbing Toronto Center
Tue 04:50:32 PM 45.0667 -76.6167 251° West 360 414 20,300 1,000 Climbing Toronto Center
Tue 04:51:32 PM 45.0333 -76.7500 239° Southwest 370 426 21,400 1,000 Climbing Toronto Center
Tue 04:52:32 PM 44.9833 -76.8667 235° Southwest 370 426 22,300 1,000 Climbing Toronto Center
Tue 04:53:32 PM 44.9167 -77.0000 247° West 370 426 23,400 1,033 Climbing Toronto Center
Tue 04:54:34 PM 44.8667 -77.1667 239° Southwest 370 426 24,400 836 Climbing Montreal Center
Tue 04:55:34 PM 44.8167 -77.2833 239° Southwest 360 414 25,100 700 Climbing Montreal Center
Tue 04:56:34 PM 44.7667 -77.4000 245° Southwest 370 426 25,800 750 Climbing Montreal Center
Tue 04:57:34 PM 44.7167 -77.5500 230° Southwest 370 426 26,600 712 Climbing Montreal Center
Tue 04:58:32 PM 44.6667 -77.6333 242° Southwest 370 426 27,200 559 Climbing Toronto Center
Tue 04:59:32 PM 44.6167 -77.7667 239° Southwest 380 437 27,700 500 Climbing Toronto Center
Tue 05:00:32 PM 44.5667 -77.8833 235° Southwest 380 437 28,200 500 Climbing Toronto Center
Tue 05:01:32 PM 44.5000 -78.0167 239° Southwest 390 449 28,700 500 Climbing Toronto Center
Tue 05:02:32 PM 44.4500 -78.1333 238° Southwest 390 449 29,200 500 Climbing Toronto Center
Tue 05:03:32 PM 44.3833 -78.2833 239° Southwest 390 449 29,700 400 Climbing Toronto Center
Tue 05:04:32 PM 44.3333 -78.4000 242° Southwest 390 449 30,000 150 Climbing Toronto Center
Tue 05:05:32 PM 44.2833 -78.5333 245° Southwest 400 460 30,000  Level Toronto Center
Tue 05:06:32 PM 44.2333 -78.6833 235° Southwest 410 472 30,000  Level Toronto Center
Tue 05:07:32 PM 44.1667 -78.8167 238° Southwest 410 472 30,000  Level Toronto Center
Tue 05:08:32 PM 44.1000 -78.9667 239° Southwest 410 472 30,000  Level Toronto Center
Tue 05:09:32 PM 44.0500 -79.0833 239° Southwest 410 472 30,000  Level Toronto Center
Tue 05:11:32 PM 43.9333 -79.3500 238° Southwest 420 483 30,000  Level Toronto Center
Tue 05:12:32 PM 43.8667 -79.5000 235° Southwest 420 483 30,000  Level Toronto Center
Tue 05:13:32 PM 43.8000 -79.6333 225° Southwest 420 483 30,000  Level Toronto Center
Tue 05:14:32 PM 43.7167 -79.7500 218° Southwest 430 495 30,000 -500 Level Toronto Center
Tue 05:16:32 PM 43.5333 -79.9500 220° Southwest 430 495 28,500 -1,033 Descending Toronto Center
Tue 05:17:32 PM 43.4333 -80.0667 221° Southwest 430 495 26,900 -1,500 Descending Toronto Center
Tue 05:18:32 PM 43.3500 -80.1667 216° Southwest 430 495 25,500 -1,500 Descending Toronto Center
Tue 05:19:32 PM 43.2500 -80.2667 221° Southwest 420 483 23,900 -1,550 Descending Toronto Center
Tue 05:20:32 PM 43.1667 -80.3667 216° Southwest 390 449 22,400 -950 Descending Toronto Center
Tue 05:21:32 PM 43.0833 -80.4500 216° Southwest 360 414 22,000 -200 Descending Toronto Center
Tue 05:22:32 PM 43.0167 -80.5167 221° Southwest 360 414 22,000  Level Toronto Center
Tue 05:23:32 PM 42.9333 -80.6167 223° Southwest 360 414 22,000  Level Toronto Center
Tue 05:24:32 PM 42.8667 -80.7000 226° Southwest 360 414 22,000  Level Toronto Center
Tue 05:25:12 PM 42.8186 -80.7672 219° Southwest 376 433 22,000  Level Cleveland Center
Tue 05:26:12 PM 42.7392 -80.8544 242° Southwest 371 427 22,000  Level Cleveland Center
Tue 05:27:12 PM 42.6931 -80.9731 264° West 338 389 22,000  Level Cleveland Center
Tue 05:28:12 PM 42.6819 -81.1114 261° West 358 412 22,000 -50 Level Cleveland Center
Tue 05:29:12 PM 42.6667 -81.2439 261° West 365 420 21,900 -700 Descending Cleveland Center
Tue 05:30:12 PM 42.6514 -81.3736 261° West 360 414 20,600 -1,250 Descending Cleveland Center
Tue 05:31:12 PM 42.6358 -81.5003 262° West 350 403 19,400 -1,200 Descending Cleveland Center
Tue 05:32:12 PM 42.6222 -81.6300 261° West 350 403 18,200 -1,150 Descending Cleveland Center
Tue 05:33:12 PM 42.6064 -81.7650 258° West 350 403 17,100 -1,200 Descending Cleveland Center
Tue 05:34:12 PM 42.5883 -81.8833 261° West 345 397 15,800 -1,250 Descending Cleveland Center
Tue 05:35:12 PM 42.5744 -82.0069 260° West 340 391 14,600 -1,200 Descending Cleveland Center
Tue 05:36:12 PM 42.5583 -82.1278 263° West 327 376 13,400 -1,221 Descending Cleveland Center
Tue 05:37:05 PM 42.5483 -82.2319 260° West 311 358 12,300 -933 Descending Cleveland Center
Tue 05:37:42 PM 42.5392 -82.2992 256° West 303 349 12,000 -269 Descending Cleveland Center
Tue 05:38:12 PM 42.5300 -82.3497 261° West 306 352 12,000  Level Cleveland Center
Tue 05:38:49 PM 42.5228 -82.4144 261° West 280 322 12,000  Level Cleveland Center
Tue 05:39:50 PM 42.5106 -82.5153 251° West 276 318 12,000 -148 Level Cleveland Center
Tue 05:40:51 PM 42.4839 -82.6186 235° Southwest 277 319 11,700 -1,183 Descending Cleveland Center
Tue 05:42:12 PM 42.4300 -82.7211 236° Southwest 276 318 9,200 -1,406 Descending Cleveland Center
Tue 05:42:59 PM 42.3953 -82.7903 232° Southwest 255 293 8,700 -1,056 Descending Cleveland Center
Tue 05:44:00 PM 42.3522 -82.8647 262° West 254 292 7,300 -887 Descending Cleveland Center
Tue 05:44:54 PM 42.3442 -82.9431 292° West 221 254 7,000 -157 Descending Cleveland Center
Tue 05:45:55 PM 42.3658 -83.0142 315° West 204 235 7,000 -244 Level Cleveland Center
Tue 05:46:57 PM 42.4061 -83.0692 273° West 196 226 6,500 -656 Descending Cleveland Center
Tue 05:48:03 PM 42.4086 -83.1450 237° Southwest 203 234 5,600 -703 Descending Cleveland Center
Tue 05:49:05 PM 42.3781 -83.2086 217° Southwest 202 232 5,000 -787 Descending Cleveland Center
Tue 05:50:05 PM 42.3356 -83.2517 207° Southwest 191 220 4,000 -1,339 Descending Cleveland Center
Tue 05:51:06 PM 42.2889 -83.2833 210° Southwest 183 211 2,300 -1,279 Descending Cleveland Center
Tue 05:52:07 PM 42.2483 -83.3153 334° Northwest 150 173 1,400 11,443 Descending Cleveland Center
Tue 05:53:26 PM 47.0000 -86.8167 10° North 510 587 29,000 11,914 Climbing Toronto Center
Tue 05:54:26 PM 47.1333 -86.7833 10° North 510 587 29,000  Level Toronto Center

Login

Don't have an account? Register now (free) for customized features, flight alerts, and more!